Astor, Florida
Current Conditions -  °F | °C
As of 11:35 AM on Friday 28 Nov 2014 (Local Time) from KDED Reporting Station
Clear Clear  
Wind Chill: 55°   Ceiling: Unl
Heat Index: 55°   Visibility: 10mi
Dew Point: 41°   Wind: 13mph
Humidity: 58%   Direction: 20°NNE
Pressure: 30.34"   Gusts: 17mph
Location:  29.15°N, 81.53°W
Report Text: KDED 281635Z AUTO 02011G15KT 10SM CLR 13/05 A3034 RMK AO1
Loading
Personal Weather Stations






























Interactive Weather Map New forecast layout! Learn more

10-Day Weather Forecast

Advertisements
Track Severe Weather on mobile